Time;durP1;ratioP1;P1;durP2;ratioP2;P2;SDS_P1;SDS_P2;PMS_P1;PMS_P2;Temp;Humidity;BMP_temperature;BMP_pressure;BME280_temperature;BME280_humidity;BME280_pressure;Samples;Min_cycle;Max_cycle;Signal;HPM_P1;HPM_P2
2022/01/02 00:02:01;;;;;;;19.17;10.85;;;;;;;;;;5069973;28;20056;-66
2022/01/02 00:04:29;;;;;;;17.23;10.30;;;;;;;;;;5070255;28;20476;-66
2022/01/02 00:07:00;;;;;;;17.65;10.30;;;;;;;;;;5070155;28;20020;-66
2022/01/02 00:09:35;;;;;;;16.35;10.25;;;;;;;;;;5070217;28;20071;-66
2022/01/02 00:12:16;;;;;;;16.45;10.38;;;;;;;;;;5069977;28;20094;-66
2022/01/02 00:14:47;;;;;;;16.60;10.20;;;;;;;;;;5069900;28;20021;-66
2022/01/02 00:17:16;;;;;;;18.85;10.15;;;;;;;;;;5070019;28;20095;-66
2022/01/02 00:19:46;;;;;;;18.27;10.73;;;;;;;;;;5070045;28;20471;-66
2022/01/02 00:22:18;;;;;;;19.20;10.32;;;;;;;;;;5069664;28;20039;-66
2022/01/02 00:24:44;;;;;;;17.38;10.55;;;;;;;;;;5070357;28;20039;-66
2022/01/02 00:27:13;;;;;;;15.75;10.05;;;;;;;;;;5069862;28;20056;-66
2022/01/02 00:29:40;;;;;;;15.77;10.90;;;;;;;;;;5069985;28;20058;-66
2022/01/02 00:32:09;;;;;;;16.25;10.48;;;;;;;;;;5069957;28;20042;-66
2022/01/02 00:34:37;;;;;;;18.77;11.27;;;;;;;;;;5069881;28;20039;-66
2022/01/02 00:37:06;;;;;;;19.60;10.85;;;;;;;;;;5069631;28;20245;-66
2022/01/02 00:39:32;;;;;;;17.77;10.90;;;;;;;;;;5069771;28;20052;-66
2022/01/02 00:42:05;;;;;;;18.58;10.98;;;;;;;;;;5051438;28;20068;-66
2022/01/02 00:45:02;;;;;;;17.17;10.15;;;;;;;;;;5069798;28;20017;-66
2022/01/02 00:47:36;;;;;;;15.35;10.02;;;;;;;;;;5068750;28;20037;-66
2022/01/02 00:50:07;;;;;;;16.05;9.52;;;;;;;;;;5069742;28;20029;-66
2022/01/02 00:52:36;;;;;;;;;;;;;;;;;;5069917;28;20112;-66
2022/01/02 00:55:05;;;;;;;16.30;9.60;;;;;;;;;;5069802;28;20015;-66
2022/01/02 00:57:35;;;;;;;16.02;9.80;;;;;;;;;;5069656;28;20017;-66
2022/01/02 01:00:08;;;;;;;14.33;9.70;;;;;;;;;;5069469;28;20021;-66
2022/01/02 01:02:49;;;;;;;16.67;9.95;;;;;;;;;;5069345;28;20432;-66
2022/01/02 01:05:22;;;;;;;14.48;8.85;;;;;;;;;;5069749;28;20024;-66
2022/01/02 01:07:59;;;;;;;14.38;9.25;;;;;;;;;;5071508;28;20507;-66
2022/01/02 01:10:28;;;;;;;15.93;9.02;;;;;;;;;;5073231;28;20496;-66
2022/01/02 01:12:56;;;;;;;14.88;9.35;;;;;;;;;;5072659;28;20028;-66
2022/01/02 01:15:23;;;;;;;16.67;9.30;;;;;;;;;;5073018;28;20032;-66
2022/01/02 01:17:55;;;;;;;14.88;9.05;;;;;;;;;;5072968;28;20096;-66
2022/01/02 01:20:21;;;;;;;17.65;9.90;;;;;;;;;;5072993;28;20031;-66
2022/01/02 01:22:48;;;;;;;16.52;9.55;;;;;;;;;;5072703;28;20024;-67
2022/01/02 01:25:18;;;;;;;14.95;8.90;;;;;;;;;;5072873;28;20025;-66
2022/01/02 01:27:48;;;;;;;17.27;9.10;;;;;;;;;;5072596;28;20499;-66
2022/01/02 01:30:15;;;;;;;14.95;9.18;;;;;;;;;;5072786;28;20017;-66
2022/01/02 01:32:41;;;;;;;15.57;8.95;;;;;;;;;;5072648;28;20024;-66
2022/01/02 01:35:08;;;;;;;16.88;9.50;;;;;;;;;;5072723;28;20036;-67
2022/01/02 01:37:34;;;;;;;14.85;9.35;;;;;;;;;;5072444;28;20040;-66
2022/01/02 01:40:00;;;;;;;15.73;9.60;;;;;;;;;;5072602;28;20021;-66
2022/01/02 01:42:41;;;;;;;15.90;8.70;;;;;;;;;;5054256;28;20025;-66
2022/01/02 01:47:56;;;;;;;16.95;8.63;;;;;;;;;;5072502;28;20011;-66
2022/01/02 01:50:25;;;;;;;13.70;8.73;;;;;;;;;;5072346;28;20107;-66
2022/01/02 01:52:50;;;;;;;13.10;8.60;;;;;;;;;;5072459;28;20032;-66
2022/01/02 01:55:16;;;;;;;16.02;8.68;;;;;;;;;;5072302;28;20427;-71
2022/01/02 01:57:42;;;;;;;15.43;9.25;;;;;;;;;;5072185;28;20029;-66
2022/01/02 02:00:13;;;;;;;15.00;9.02;;;;;;;;;;5072076;28;20111;-66
2022/01/02 02:02:39;;;;;;;12.05;8.20;;;;;;;;;;5071795;28;20182;-66
2022/01/02 02:05:05;;;;;;;15.00;8.77;;;;;;;;;;5072023;28;20547;-66
2022/01/02 02:07:38;;;;;;;15.52;9.10;;;;;;;;;;5072215;28;20458;-66
2022/01/02 02:10:12;;;;;;;13.48;8.43;;;;;;;;;;5072242;28;20032;-66
2022/01/02 02:12:40;;;;;;;12.20;7.80;;;;;;;;;;5071783;28;20032;-66
2022/01/02 02:15:07;;;;;;;13.73;7.95;;;;;;;;;;5071930;28;20024;-66
2022/01/02 02:17:32;;;;;;;12.73;7.65;;;;;;;;;;5071511;28;20031;-66
2022/01/02 02:20:11;;;;;;;13.77;7.82;;;;;;;;;;5071953;28;20115;-66
2022/01/02 02:22:42;;;;;;;13.50;8.02;;;;;;;;;;5071560;28;20036;-66
2022/01/02 02:25:07;;;;;;;;;;;;;;;;;;5072323;28;20147;-66
2022/01/02 02:27:33;;;;;;;11.90;7.35;;;;;;;;;;5071712;28;19994;-66
2022/01/02 02:29:59;;;;;;;12.20;7.65;;;;;;;;;;5071941;28;20035;-66
2022/01/02 02:32:25;;;;;;;12.80;7.82;;;;;;;;;;5071885;28;20039;-66
2022/01/02 02:34:50;;;;;;;14.05;7.82;;;;;;;;;;5071551;28;20066;-66
2022/01/02 02:37:16;;;;;;;13.23;7.80;;;;;;;;;;5071390;28;20565;-66
2022/01/02 02:39:41;;;;;;;11.88;8.00;;;;;;;;;;5071414;28;20055;-66
2022/01/02 02:42:15;;;;;;;15.45;8.52;;;;;;;;;;5070956;28;20068;-66
2022/01/02 02:44:41;;;;;;;12.75;8.13;;;;;;;;;;5071211;28;20427;-66
2022/01/02 02:49:51;;;;;;;13.07;8.18;;;;;;;;;;5071187;28;20400;-66
2022/01/02 02:52:42;;;;;;;12.20;8.00;;;;;;;;;;5071074;28;20024;-66
2022/01/02 02:55:05;;;;;;;16.77;8.70;;;;;;;;;;5070796;28;20032;-66
2022/01/02 02:57:32;;;;;;;14.00;8.98;;;;;;;;;;5071481;28;20104;-66
2022/01/02 02:59:58;;;;;;;12.85;7.63;;;;;;;;;;5071025;28;20025;-66
2022/01/02 03:02:23;;;;;;;12.30;8.18;;;;;;;;;;5070726;28;20029;-66
2022/01/02 03:04:49;;;;;;;12.88;8.10;;;;;;;;;;5071052;28;20020;-66
2022/01/02 03:07:14;;;;;;;14.38;8.07;;;;;;;;;;5070974;28;20020;-66
2022/01/02 03:09:47;;;;;;;12.80;8.07;;;;;;;;;;5070722;28;20025;-66
2022/01/02 03:12:12;;;;;;;13.52;7.90;;;;;;;;;;5070658;28;20056;-66
2022/01/02 03:14:37;;;;;;;11.57;7.57;;;;;;;;;;5070592;28;20055;-66
2022/01/02 03:17:04;;;;;;;12.48;7.60;;;;;;;;;;5070807;28;20024;-66
2022/01/02 03:19:31;;;;;;;13.55;7.80;;;;;;;;;;5070748;28;20070;-66
2022/01/02 03:21:57;;;;;;;12.95;7.63;;;;;;;;;;5070637;28;20512;-66
2022/01/02 03:24:22;;;;;;;12.02;7.07;;;;;;;;;;5070688;28;20036;-66
2022/01/02 03:26:48;;;;;;;13.70;7.35;;;;;;;;;;5070789;28;20544;-66
2022/01/02 03:29:13;;;;;;;13.80;7.88;;;;;;;;;;5070230;28;20447;-66
2022/01/02 03:31:38;;;;;;;10.27;6.40;;;;;;;;;;5070230;28;20507;-66
2022/01/02 03:34:05;;;;;;;12.05;6.60;;;;;;;;;;5070354;28;20101;-66
2022/01/02 03:36:30;;;;;;;11.20;6.38;;;;;;;;;;5070297;28;20045;-66
2022/01/02 03:38:56;;;;;;;10.65;6.63;;;;;;;;;;5070551;28;20119;-66
2022/01/02 03:41:21;;;;;;;11.75;6.85;;;;;;;;;;5070441;28;20115;-66
2022/01/02 03:43:46;;;;;;;11.73;7.05;;;;;;;;;;5070049;28;20055;-66
2022/01/02 03:46:12;;;;;;;10.75;6.68;;;;;;;;;;5070402;28;20026;-66
2022/01/02 03:48:38;;;;;;;11.80;6.75;;;;;;;;;;5070412;28;20097;-66
2022/01/02 03:51:04;;;;;;;11.88;6.95;;;;;;;;;;5052379;28;20489;-66
2022/01/02 03:53:30;;;;;;;9.57;6.28;;;;;;;;;;5069971;28;20422;-66
2022/01/02 03:55:55;;;;;;;11.18;6.47;;;;;;;;;;5070686;28;20061;-66
2022/01/02 03:58:21;;;;;;;11.07;6.20;;;;;;;;;;5070113;28;20017;-66
2022/01/02 04:00:46;;;;;;;12.00;6.40;;;;;;;;;;5070317;28;20020;-66
2022/01/02 04:03:12;;;;;;;9.20;6.03;;;;;;;;;;5070288;28;20054;-66
2022/01/02 04:05:37;;;;;;;9.93;6.45;;;;;;;;;;5070333;28;20074;-66
2022/01/02 04:08:04;;;;;;;10.95;6.45;;;;;;;;;;5070300;28;20028;-66
2022/01/02 04:10:30;;;;;;;10.55;6.32;;;;;;;;;;5070153;28;20024;-67
2022/01/02 04:12:55;;;;;;;11.80;6.78;;;;;;;;;;5070206;28;20032;-66
2022/01/02 04:15:20;;;;;;;10.02;6.13;;;;;;;;;;5070010;28;20017;-66
2022/01/02 04:17:46;;;;;;;10.02;6.18;;;;;;;;;;5052231;28;20028;-66
2022/01/02 04:20:13;;;;;;;11.55;6.20;;;;;;;;;;5070065;28;20020;-66
2022/01/02 04:22:39;;;;;;;10.93;6.82;;;;;;;;;;5069876;28;20055;-66
2022/01/02 04:25:05;;;;;;;8.70;5.80;;;;;;;;;;5070140;28;20488;-66
2022/01/02 04:27:31;;;;;;;10.88;5.95;;;;;;;;;;5069870;28;20388;-66
2022/01/02 04:29:57;;;;;;;10.68;6.18;;;;;;;;;;5070234;28;20029;-66
2022/01/02 04:32:22;;;;;;;9.48;5.85;;;;;;;;;;5070028;28;20100;-66
2022/01/02 04:34:48;;;;;;;9.50;5.97;;;;;;;;;;5069707;28;20442;-67
2022/01/02 04:37:14;;;;;;;9.80;6.05;;;;;;;;;;5069688;28;20471;-66
2022/01/02 04:39:40;;;;;;;9.68;5.90;;;;;;;;;;5069856;28;20043;-66
2022/01/02 04:42:07;;;;;;;9.18;5.97;;;;;;;;;;5072214;28;20028;-66
2022/01/02 04:44:32;;;;;;;11.23;6.70;;;;;;;;;;5073204;28;20028;-66
2022/01/02 04:46:58;;;;;;;10.70;5.90;;;;;;;;;;5073760;28;20035;-66
2022/01/02 04:49:23;;;;;;;10.55;6.03;;;;;;;;;;5073898;28;20025;-66
2022/01/02 04:51:49;;;;;;;12.45;6.20;;;;;;;;;;5073804;28;20464;-66
2022/01/02 04:54:15;;;;;;;10.90;6.10;;;;;;;;;;5073324;28;20033;-66
2022/01/02 04:56:40;;;;;;;10.77;6.07;;;;;;;;;;5073521;28;20035;-66
2022/01/02 04:59:06;;;;;;;11.57;6.18;;;;;;;;;;5073253;28;20032;-66
2022/01/02 05:01:31;;;;;;;10.80;6.13;;;;;;;;;;5073238;28;20115;-66
2022/01/02 05:03:57;;;;;;;9.73;6.22;;;;;;;;;;5073066;28;20082;-66
2022/01/02 05:06:22;;;;;;;10.10;6.22;;;;;;;;;;5073233;28;20021;-66
2022/01/02 05:08:48;;;;;;;9.82;5.88;;;;;;;;;;5073239;28;20028;-66
2022/01/02 05:11:14;;;;;;;9.63;6.10;;;;;;;;;;5073207;28;20086;-66
2022/01/02 05:13:40;;;;;;;11.63;6.30;;;;;;;;;;5072843;28;20433;-66
2022/01/02 05:16:06;;;;;;;11.40;6.22;;;;;;;;;;5073076;28;20039;-66
2022/01/02 05:18:31;;;;;;;11.88;6.25;;;;;;;;;;5072896;28;20032;-66
2022/01/02 05:20:57;;;;;;;8.98;5.93;;;;;;;;;;5073148;28;20036;-66
2022/01/02 05:23:22;;;;;;;9.80;6.07;;;;;;;;;;5054614;28;20036;-66
2022/01/02 05:25:48;;;;;;;9.95;6.00;;;;;;;;;;5073014;28;20513;-66
2022/01/02 05:28:13;;;;;;;9.57;6.13;;;;;;;;;;5072579;28;20082;-66
2022/01/02 05:30:40;;;;;;;11.10;6.43;;;;;;;;;;5072866;28;20084;-66
2022/01/02 05:33:06;;;;;;;9.85;6.18;;;;;;;;;;5073007;28;20033;-67
2022/01/02 05:35:31;;;;;;;12.35;6.50;;;;;;;;;;5073127;28;20404;-66
2022/01/02 05:38:06;;;;;;;13.30;6.50;;;;;;;;;;5072670;28;20078;-66
2022/01/02 05:40:32;;;;;;;10.35;6.10;;;;;;;;;;5072446;28;20032;-66
2022/01/02 05:42:58;;;;;;;8.93;5.63;;;;;;;;;;5072209;28;20028;-70
2022/01/02 05:45:24;;;;;;;9.27;5.68;;;;;;;;;;5072340;28;20029;-66
2022/01/02 05:47:49;;;;;;;10.63;6.35;;;;;;;;;;5054490;28;20032;-67
2022/01/02 05:50:15;;;;;;;9.20;6.22;;;;;;;;;;5054380;28;20061;-66
2022/01/02 05:52:40;;;;;;;8.93;5.75;;;;;;;;;;5071973;28;20028;-66
2022/01/02 05:55:06;;;;;;;10.32;6.07;;;;;;;;;;5072116;28;20101;-67
2022/01/02 05:57:32;;;;;;;12.32;6.25;;;;;;;;;;5072333;28;20115;-66
2022/01/02 05:59:58;;;;;;;10.40;6.03;;;;;;;;;;5072088;28;20497;-66
2022/01/02 06:02:23;;;;;;;11.10;6.13;;;;;;;;;;5072176;28;20107;-66
2022/01/02 06:04:49;;;;;;;11.38;6.03;;;;;;;;;;5071946;28;20454;-66
2022/01/02 06:07:15;;;;;;;10.27;6.22;;;;;;;;;;5072092;28;20024;-66
2022/01/02 06:09:40;;;;;;;11.07;6.32;;;;;;;;;;5072156;28;20056;-66
2022/01/02 06:12:06;;;;;;;10.60;5.97;;;;;;;;;;5054085;28;20060;-66
2022/01/02 06:14:32;;;;;;;10.85;6.03;;;;;;;;;;5071574;28;20025;-66
2022/01/02 06:16:57;;;;;;;11.27;5.85;;;;;;;;;;5071799;28;20028;-66
2022/01/02 06:19:23;;;;;;;10.75;6.22;;;;;;;;;;5071735;28;20078;-66
2022/01/02 06:21:48;;;;;;;9.85;5.97;;;;;;;;;;5071778;28;20038;-66
2022/01/02 06:24:13;;;;;;;9.02;5.75;;;;;;;;;;5071784;28;20029;-66
2022/01/02 06:26:39;;;;;;;9.95;5.88;;;;;;;;;;5071688;28;20028;-66
2022/01/02 06:29:04;;;;;;;11.20;5.90;;;;;;;;;;5071845;28;20017;-66
2022/01/02 06:31:30;;;;;;;11.77;5.80;;;;;;;;;;5071931;28;20028;-66
2022/01/02 06:33:56;;;;;;;12.88;6.10;;;;;;;;;;5071249;28;20060;-66
2022/01/02 06:36:21;;;;;;;9.70;5.78;;;;;;;;;;5071456;28;20045;-66
2022/01/02 06:38:47;;;;;;;9.25;5.63;;;;;;;;;;5071505;28;20033;-66
2022/01/02 06:41:13;;;;;;;10.88;6.22;;;;;;;;;;5071390;28;20437;-66
2022/01/02 06:43:39;;;;;;;9.02;5.65;;;;;;;;;;5071205;28;20042;-67
2022/01/02 06:46:06;;;;;;;11.75;5.78;;;;;;;;;;5053330;28;20037;-66
2022/01/02 06:48:31;;;;;;;10.35;6.00;;;;;;;;;;5071240;28;20104;-67
2022/01/02 06:50:57;;;;;;;11.95;5.90;;;;;;;;;;5071160;28;20111;-66
2022/01/02 06:53:22;;;;;;;10.52;5.95;;;;;;;;;;5071237;28;20032;-69
2022/01/02 06:55:48;;;;;;;11.88;5.70;;;;;;;;;;5070944;28;20036;-66
2022/01/02 06:58:14;;;;;;;8.80;5.35;;;;;;;;;;5070969;28;20021;-66
2022/01/02 07:00:40;;;;;;;9.85;5.57;;;;;;;;;;5071088;28;20513;-66
2022/01/02 07:03:06;;;;;;;9.93;5.70;;;;;;;;;;5070883;28;20029;-66
2022/01/02 07:05:31;;;;;;;9.35;5.38;;;;;;;;;;5051777;28;20102;-66
2022/01/02 07:07:57;;;;;;;12.05;5.65;;;;;;;;;;5070962;28;20013;-66
2022/01/02 07:10:22;;;;;;;9.93;5.65;;;;;;;;;;5070674;28;20476;-66
2022/01/02 07:12:48;;;;;;;9.70;5.60;;;;;;;;;;5070893;28;20025;-66
2022/01/02 07:15:13;;;;;;;9.77;5.55;;;;;;;;;;5070394;28;20017;-66
2022/01/02 07:17:39;;;;;;;9.48;5.70;;;;;;;;;;5070810;28;20017;-66
2022/01/02 07:20:05;;;;;;;9.02;5.25;;;;;;;;;;5070810;28;20392;-66
2022/01/02 07:22:30;;;;;;;8.15;5.55;;;;;;;;;;5070521;28;20093;-66
2022/01/02 07:24:56;;;;;;;9.30;6.00;;;;;;;;;;5070531;28;20119;-66
2022/01/02 07:27:21;;;;;;;9.00;5.80;;;;;;;;;;5070738;28;20021;-66
2022/01/02 07:29:48;;;;;;;9.90;5.78;;;;;;;;;;5070439;28;20029;-66
2022/01/02 07:32:15;;;;;;;8.13;5.03;;;;;;;;;;5070607;28;20028;-66
2022/01/02 07:34:40;;;;;;;10.43;5.95;;;;;;;;;;5070351;28;20020;-66
2022/01/02 07:37:06;;;;;;;10.48;5.80;;;;;;;;;;5070474;28;20052;-66
2022/01/02 07:39:31;;;;;;;9.73;5.70;;;;;;;;;;5070420;28;20024;-66
2022/01/02 07:41:57;;;;;;;10.60;5.80;;;;;;;;;;5070270;28;20028;-66
2022/01/02 07:44:22;;;;;;;11.50;5.75;;;;;;;;;;5070627;28;20459;-66
2022/01/02 07:46:47;;;;;;;9.25;5.40;;;;;;;;;;5070434;28;20424;-66
2022/01/02 07:49:13;;;;;;;13.05;5.85;;;;;;;;;;5070560;28;20579;-66
2022/01/02 07:51:39;;;;;;;12.82;5.90;;;;;;;;;;5070399;28;20452;-66
2022/01/02 07:54:04;;;;;;;11.07;5.78;;;;;;;;;;5070322;28;20553;-66
2022/01/02 07:56:29;;;;;;;10.68;6.10;;;;;;;;;;5070283;28;20462;-66
2022/01/02 07:58:59;;;;;;;8.73;5.53;;;;;;;;;;5070189;28;20027;-66
2022/01/02 08:01:25;;;;;;;11.27;6.15;;;;;;;;;;5070199;28;20012;-66
2022/01/02 08:03:51;;;;;;;9.13;5.50;;;;;;;;;;5069984;28;20035;-71
2022/01/02 08:06:17;;;;;;;9.85;6.20;;;;;;;;;;5070437;28;20099;-66
2022/01/02 08:08:42;;;;;;;11.40;5.80;;;;;;;;;;5070531;28;20052;-66
2022/01/02 08:11:08;;;;;;;9.18;5.90;;;;;;;;;;5070215;28;20033;-66
2022/01/02 08:13:34;;;;;;;10.35;6.32;;;;;;;;;;5069893;28;20035;-66
2022/01/02 08:15:59;;;;;;;12.63;6.13;;;;;;;;;;5070427;28;20032;-66
2022/01/02 08:18:25;;;;;;;9.63;6.10;;;;;;;;;;5074268;28;20021;-66
2022/01/02 08:20:50;;;;;;;11.88;6.30;;;;;;;;;;5074055;28;20031;-66
2022/01/02 08:23:15;;;;;;;13.15;5.70;;;;;;;;;;5073897;28;20032;-66
2022/01/02 08:25:41;;;;;;;11.82;6.28;;;;;;;;;;5073927;28;20070;-66
2022/01/02 08:28:07;;;;;;;9.25;5.43;;;;;;;;;;5073842;28;20032;-66
2022/01/02 08:30:32;;;;;;;8.55;5.47;;;;;;;;;;5074015;28;20453;-66
2022/01/02 08:32:58;;;;;;;11.90;6.00;;;;;;;;;;5073840;28;20040;-66
2022/01/02 08:35:23;;;;;;;14.43;6.00;;;;;;;;;;5073717;28;20028;-66
2022/01/02 08:37:49;;;;;;;8.57;5.45;;;;;;;;;;5055821;28;20044;-66
2022/01/02 08:40:14;;;;;;;10.75;5.78;;;;;;;;;;5073671;28;20031;-66
2022/01/02 08:42:42;;;;;;;9.73;5.88;;;;;;;;;;5073584;28;20025;-66
2022/01/02 08:45:08;;;;;;;11.93;6.07;;;;;;;;;;5073298;28;20476;-66
2022/01/02 08:47:34;;;;;;;12.73;5.90;;;;;;;;;;5073873;28;20017;-66
2022/01/02 08:50:00;;;;;;;12.07;6.20;;;;;;;;;;5073547;28;20061;-66
2022/01/02 08:52:25;;;;;;;10.57;5.97;;;;;;;;;;5073384;28;20035;-66
2022/01/02 08:54:51;;;;;;;11.70;6.03;;;;;;;;;;5073282;28;20104;-66
2022/01/02 08:57:17;;;;;;;10.00;5.75;;;;;;;;;;5073268;28;20024;-66
2022/01/02 08:59:43;;;;;;;10.57;6.32;;;;;;;;;;5073273;28;20538;-66
2022/01/02 09:02:08;;;;;;;9.10;6.13;;;;;;;;;;5073395;28;20029;-66
2022/01/02 09:04:34;;;;;;;10.20;6.25;;;;;;;;;;5054976;28;20622;-66
2022/01/02 09:07:01;;;;;;;11.38;7.20;;;;;;;;;;5073177;28;20028;-66
2022/01/02 09:09:27;;;;;;;21.20;12.55;;;;;;;;;;5073224;28;20028;-66
2022/01/02 09:11:52;;;;;;;23.90;11.55;;;;;;;;;;5073519;28;20375;-66
2022/01/02 09:14:17;;;;;;;26.25;13.85;;;;;;;;;;5073156;28;20103;-67
2022/01/02 09:16:44;;;;;;;13.38;7.18;;;;;;;;;;5073126;28;20048;-66
2022/01/02 09:19:11;;;;;;;19.70;10.73;;;;;;;;;;5073174;28;20426;-66
2022/01/02 09:21:36;;;;;;;15.77;7.85;;;;;;;;;;5072987;28;20407;-66
2022/01/02 09:24:03;;;;;;;12.40;6.35;;;;;;;;;;5073287;28;20028;-66
2022/01/02 09:26:29;;;;;;;10.10;5.68;;;;;;;;;;5054400;28;20028;-66
2022/01/02 09:28:54;;;;;;;9.57;5.47;;;;;;;;;;5071548;28;20033;-66
2022/01/02 09:31:20;;;;;;;10.15;5.88;;;;;;;;;;5072879;28;20032;-66
2022/01/02 09:33:45;;;;;;;16.98;8.32;;;;;;;;;;5072676;28;20024;-66
2022/01/02 09:36:11;;;;;;;19.77;9.02;;;;;;;;;;5072567;28;20207;-66
2022/01/02 09:38:36;;;;;;;13.73;7.28;;;;;;;;;;5072762;28;20025;-66
2022/01/02 09:41:02;;;;;;;28.05;12.18;;;;;;;;;;5073084;28;20033;-66
2022/01/02 09:43:27;;;;;;;12.13;6.80;;;;;;;;;;5072230;28;20039;-66
2022/01/02 09:45:54;;;;;;;11.40;6.13;;;;;;;;;;5072288;28;20033;-66
2022/01/02 09:48:19;;;;;;;20.20;9.43;;;;;;;;;;5072548;28;20574;-66
2022/01/02 09:50:47;;;;;;;14.40;7.10;;;;;;;;;;5072348;28;20123;-66
2022/01/02 09:53:13;;;;;;;10.93;5.85;;;;;;;;;;5072186;28;20036;-66
2022/01/02 09:55:39;;;;;;;11.52;5.72;;;;;;;;;;5071988;28;20032;-66
2022/01/02 09:58:10;;;;;;;12.23;6.60;;;;;;;;;;5072290;28;20029;-66
2022/01/02 10:00:36;;;;;;;10.93;6.22;;;;;;;;;;5072260;28;20028;-66
2022/01/02 10:03:08;;;;;;;10.07;5.75;;;;;;;;;;5072070;28;20111;-66
2022/01/02 10:05:53;;;;;;;10.75;5.88;;;;;;;;;;5071866;28;20037;-66
2022/01/02 10:08:31;;;;;;;9.15;5.38;;;;;;;;;;5072067;28;20020;-66
2022/01/02 10:11:03;;;;;;;9.60;5.55;;;;;;;;;;5072106;28;20117;-66
2022/01/02 10:13:42;;;;;;;11.05;6.07;;;;;;;;;;5071795;28;20488;-66
2022/01/02 10:16:26;;;;;;;13.93;7.65;;;;;;;;;;5071926;28;20024;-66
2022/01/02 10:18:54;;;;;;;11.32;6.28;;;;;;;;;;5071855;28;20108;-66
2022/01/02 10:21:39;;;;;;;12.20;6.50;;;;;;;;;;5072050;28;20037;-66
2022/01/02 10:24:16;;;;;;;11.18;6.18;;;;;;;;;;5071703;28;20024;-72
2022/01/02 10:27:04;;;;;;;11.20;5.60;;;;;;;;;;5071544;28;20029;-66
2022/01/02 10:29:50;;;;;;;9.77;6.13;;;;;;;;;;5071590;28;20028;-66
2022/01/02 10:32:37;;;;;;;13.85;7.45;;;;;;;;;;5071608;28;20024;-66
2022/01/02 10:35:12;;;;;;;10.50;6.30;;;;;;;;;;5071429;28;20161;-67
2022/01/02 10:37:39;;;;;;;9.45;5.90;;;;;;;;;;5071082;28;20040;-66
2022/01/02 10:40:08;;;;;;;25.60;12.65;;;;;;;;;;5071143;28;20021;-66
2022/01/02 10:42:42;;;;;;;11.07;5.47;;;;;;;;;;5071318;28;20064;-66
2022/01/02 10:45:08;;;;;;;8.98;5.53;;;;;;;;;;5071052;28;20064;-67
2022/01/02 10:47:34;;;;;;;10.95;5.53;;;;;;;;;;5071262;28;20032;-66
2022/01/02 10:50:04;;;;;;;9.13;5.50;;;;;;;;;;5071080;28;20067;-66
2022/01/02 10:52:30;;;;;;;9.30;5.60;;;;;;;;;;5071133;28;20032;-66
2022/01/02 10:54:59;;;;;;;9.10;5.90;;;;;;;;;;5071042;28;20099;-67
2022/01/02 10:57:24;;;;;;;9.50;5.22;;;;;;;;;;5071000;28;20051;-66
2022/01/02 10:59:55;;;;;;;9.55;5.72;;;;;;;;;;5070839;28;20064;-67
2022/01/02 11:02:22;;;;;;;9.60;5.13;;;;;;;;;;5070882;28;20036;-67
2022/01/02 11:05:02;;;;;;;8.73;5.60;;;;;;;;;;5070975;28;20160;-68
2022/01/02 11:07:36;;;;;;;9.20;5.50;;;;;;;;;;5070936;28;20093;-67
2022/01/02 11:10:02;;;;;;;9.45;5.55;;;;;;;;;;5070951;28;20071;-66
2022/01/02 11:12:28;;;;;;;10.73;5.95;;;;;;;;;;5070866;28;20063;-66
2022/01/02 11:14:54;;;;;;;9.95;6.25;;;;;;;;;;5070635;28;20056;-67
2022/01/02 11:17:19;;;;;;;12.57;5.90;;;;;;;;;;5052470;28;20028;-66
2022/01/02 11:19:45;;;;;;;10.07;5.82;;;;;;;;;;5070881;28;20399;-66
2022/01/02 11:22:26;;;;;;;9.07;5.93;;;;;;;;;;5052680;28;20028;-66
2022/01/02 11:25:13;;;;;;;11.77;5.75;;;;;;;;;;5070723;28;20028;-66
2022/01/02 11:27:47;;;;;;;9.27;5.80;;;;;;;;;;5070399;28;20036;-66
2022/01/02 11:30:33;;;;;;;10.23;5.82;;;;;;;;;;5070507;28;20028;-66
2022/01/02 11:33:06;;;;;;;10.60;6.10;;;;;;;;;;5070601;28;20039;-66
2022/01/02 11:35:33;;;;;;;10.73;6.00;;;;;;;;;;5070456;28;20032;-67
2022/01/02 11:38:03;;;;;;;10.77;6.30;;;;;;;;;;5085829;28;20052;-66
2022/01/02 11:40:49;;;;;;;11.27;6.47;;;;;;;;;;5070433;28;20036;-67
2022/01/02 11:43:36;;;;;;;10.98;6.15;;;;;;;;;;5070045;28;20029;-66
2022/01/02 11:46:20;;;;;;;10.23;5.97;;;;;;;;;;5070158;28;20157;-67
2022/01/02 11:49:36;;;;;;;10.40;6.22;;;;;;;;;;5070320;28;20028;-66
2022/01/02 11:51:57;;;;;;;10.85;6.75;;;;;;;;;;5066533;28;20094;-66
2022/01/02 11:54:31;;;;;;;10.88;6.72;;;;;;;;;;5070234;28;20111;-66
2022/01/02 11:56:59;;;;;;;9.65;5.65;;;;;;;;;;5070282;28;20028;-66
2022/01/02 11:59:45;;;;;;;11.73;6.75;;;;;;;;;;5069974;28;20154;-66
2022/01/02 12:02:23;;;;;;;9.23;5.75;;;;;;;;;;5062799;28;20047;-66
2022/01/02 12:04:58;;;;;;;8.38;5.22;;;;;;;;;;5070199;28;20158;-66
2022/01/02 12:07:53;;;;;;;9.80;5.18;;;;;;;;;;5070291;28;20302;-66
2022/01/02 12:10:20;;;;;;;9.27;5.22;;;;;;;;;;5070117;28;20116;-66
2022/01/02 12:12:58;;;;;;;9.88;5.68;;;;;;;;;;5070284;28;20437;-66
2022/01/02 12:15:24;;;;;;;8.82;5.30;;;;;;;;;;5069985;28;20174;-66
2022/01/02 12:18:27;;;;;;;8.32;5.00;;;;;;;;;;5070012;28;20028;-66
2022/01/02 12:20:52;;;;;;;9.45;5.60;;;;;;;;;;5063018;28;20097;-66
2022/01/02 12:26:02;;;;;;;9.77;6.18;;;;;;;;;;5069974;28;20400;-66
2022/01/02 12:28:37;;;;;;;8.68;5.78;;;;;;;;;;5069927;28;20077;-66
2022/01/02 12:31:03;;;;;;;8.98;5.50;;;;;;;;;;5069983;28;20039;-66
2022/01/02 12:33:30;;;;;;;8.48;5.45;;;;;;;;;;5070038;28;20036;-66
2022/01/02 12:35:56;;;;;;;9.30;5.93;;;;;;;;;;5069544;28;20054;-66
2022/01/02 12:38:23;;;;;;;10.18;5.90;;;;;;;;;;5069968;28;20508;-66
2022/01/02 12:40:53;;;;;;;9.32;5.70;;;;;;;;;;5069867;28;20103;-66
2022/01/02 12:43:25;;;;;;;11.38;6.22;;;;;;;;;;5069799;28;20464;-66
2022/01/02 12:45:54;;;;;;;8.93;5.28;;;;;;;;;;5069811;28;20033;-67
2022/01/02 12:48:33;;;;;;;9.93;5.72;;;;;;;;;;5069714;28;20103;-66
2022/01/02 12:51:12;;;;;;;9.02;5.45;;;;;;;;;;5069869;28;20033;-66
2022/01/02 12:53:38;;;;;;;10.73;5.50;;;;;;;;;;5069715;28;20028;-66
2022/01/02 12:56:04;;;;;;;11.68;5.70;;;;;;;;;;5069511;28;20408;-66
2022/01/02 12:58:34;;;;;;;13.40;7.25;;;;;;;;;;5069617;28;20031;-66
2022/01/02 13:01:05;;;;;;;12.75;6.32;;;;;;;;;;5070212;28;20361;-66
2022/01/02 13:03:31;;;;;;;10.40;6.15;;;;;;;;;;5072382;28;20039;-66
2022/01/02 13:05:58;;;;;;;8.82;5.07;;;;;;;;;;5073397;28;20028;-66
2022/01/02 13:08:25;;;;;;;9.52;5.82;;;;;;;;;;5055472;28;20361;-66
2022/01/02 13:10:52;;;;;;;9.35;5.80;;;;;;;;;;5073259;28;20033;-66
2022/01/02 13:13:30;;;;;;;7.95;5.13;;;;;;;;;;5073024;28;20462;-66
2022/01/02 13:16:06;;;;;;;8.60;5.35;;;;;;;;;;5072872;28;20029;-68
2022/01/02 13:18:31;;;;;;;11.48;6.25;;;;;;;;;;5073051;28;20111;-66
2022/01/02 13:20:57;;;;;;;10.13;6.38;;;;;;;;;;5073088;28;20147;-66
2022/01/02 13:23:22;;;;;;;9.23;5.60;;;;;;;;;;5072875;28;20035;-66
2022/01/02 13:25:48;;;;;;;12.27;7.85;;;;;;;;;;5072939;28;20103;-66
2022/01/02 13:28:18;;;;;;;9.27;5.60;;;;;;;;;;5072534;28;20299;-66
2022/01/02 13:30:53;;;;;;;11.60;5.03;;;;;;;;;;5072841;28;20035;-67
2022/01/02 13:33:26;;;;;;;10.77;5.85;;;;;;;;;;5072717;28;20174;-66
2022/01/02 13:35:58;;;;;;;8.10;5.35;;;;;;;;;;5072762;28;20028;-66
2022/01/02 13:38:24;;;;;;;8.52;5.13;;;;;;;;;;5072594;28;20028;-66
2022/01/02 13:40:50;;;;;;;8.85;5.40;;;;;;;;;;5072530;28;20361;-67
2022/01/02 13:43:22;;;;;;;8.15;5.28;;;;;;;;;;5072490;28;20031;-66
2022/01/02 13:45:48;;;;;;;8.52;5.30;;;;;;;;;;5072525;28;20024;-66
2022/01/02 13:48:21;;;;;;;7.97;4.90;;;;;;;;;;5072428;28;20153;-66
2022/01/02 13:50:55;;;;;;;10.27;5.82;;;;;;;;;;5072466;28;20028;-66
2022/01/02 13:53:23;;;;;;;7.57;5.05;;;;;;;;;;5072464;28;20038;-66
2022/01/02 13:56:14;;;;;;;7.80;5.13;;;;;;;;;;5072420;28;20100;-66
2022/01/02 13:58:45;;;;;;;10.20;5.78;;;;;;;;;;5072166;28;20017;-67
2022/01/02 14:01:19;;;;;;;8.57;5.15;;;;;;;;;;5072553;28;20036;-66
2022/01/02 14:03:45;;;;;;;9.07;5.57;;;;;;;;;;5072014;28;20033;-67
2022/01/02 14:06:27;;;;;;;9.68;5.60;;;;;;;;;;5072357;28;20028;-69
2022/01/02 14:08:54;;;;;;;10.45;5.85;;;;;;;;;;5072156;28;20020;-67
2022/01/02 14:11:26;;;;;;;9.30;5.70;;;;;;;;;;5072417;28;20106;-67
2022/01/02 14:14:17;;;;;;;9.90;5.65;;;;;;;;;;5071139;28;20028;-66
2022/01/02 14:17:02;;;;;;;10.43;5.80;;;;;;;;;;5071622;28;20020;-66
2022/01/02 14:19:33;;;;;;;10.27;5.93;;;;;;;;;;5071773;28;20036;-67
2022/01/02 14:22:00;;;;;;;10.60;5.70;;;;;;;;;;5071862;28;20024;-66
2022/01/02 14:24:25;;;;;;;9.43;5.30;;;;;;;;;;5071592;28;20103;-67
2022/01/02 14:26:51;;;;;;;10.93;5.90;;;;;;;;;;5071651;28;20099;-67
2022/01/02 14:29:17;;;;;;;10.85;5.90;;;;;;;;;;5071420;28;20025;-67
2022/01/02 14:31:43;;;;;;;9.68;5.63;;;;;;;;;;5071540;28;20028;-66
2022/01/02 14:34:09;;;;;;;8.23;5.43;;;;;;;;;;5071586;28;20062;-66
2022/01/02 14:36:35;;;;;;;10.20;5.35;;;;;;;;;;5071193;28;20067;-66
2022/01/02 14:39:00;;;;;;;9.05;5.85;;;;;;;;;;5071496;28;20035;-66
2022/01/02 14:41:25;;;;;;;10.25;5.82;;;;;;;;;;5071343;28;20380;-66
2022/01/02 14:43:52;;;;;;;12.02;6.25;;;;;;;;;;5071276;28;20020;-66
2022/01/02 14:46:18;;;;;;;10.48;5.90;;;;;;;;;;5071433;28;20151;-67
2022/01/02 14:48:44;;;;;;;9.75;6.25;;;;;;;;;;5070890;28;20074;-66
2022/01/02 14:51:10;;;;;;;12.10;7.47;;;;;;;;;;5071272;28;20020;-67